Apodaca, New Mexico
Current Conditions -  °F | °C
As of 7:15 AM on Sunday 21 Dec 2014 (Local Time) from KSKX Reporting Station
Clear Clear  
Wind Chill: -3°   Ceiling: Unl
Heat Index: -3°   Visibility: 10mi
Dew Point: -7°   Wind: 3mph
Humidity: 74%   Direction: 270°W
Pressure: 30.01"   Gusts: NA
Location:  36.1644°N, 105.863°W
Report Text: KSKX 211415Z AUTO 27003KT 10SM CLR M03/M07 A3001 RMK AO1
Loading
Personal Weather Stations






























Interactive Weather Map New forecast layout! Learn more

10-Day Weather Forecast

Advertisements
Track Severe Weather on mobile